Date,TemperatureHighF,TemperatureAvgF,TemperatureLowF,DewpointHighF,DewpointAvgF,DewpointLowF,HumidityHigh,HumidityAvg,HumidityLow,PressureMaxIn,PressureMinIn,WindSpeedMaxMPH,WindSpeedAvgMPH,GustSpeedMaxMPH,PrecipitationSumIn
2013-1-1,66.0,56.2,47.0,60.5,53.1,46.0,100,90,71,30.21,30.00,9,0,0,0.00
2013-1-2,63.0,57.5,52.0,60.0,55.6,50.0,100,94,82,30.15,29.93,10,1,0,0.00
2013-1-3,52.0,48.8,44.0,50.5,48.5,44.0,100,99,95,30.26,30.08,7,0,0,0.18
2013-1-4,54.0,42.1,33.0,47.0,37.5,32.0,100,86,44,30.36,30.23,10,0,0,0.01
2013-1-5,53.0,40.2,29.0,43.0,35.5,29.0,100,86,44,30.43,30.26,6,0,0,0.00
2013-1-6,55.0,48.2,43.0,49.0,46.5,42.0,100,94,72,30.28,30.11,7,0,0,0.08
2013-1-7,56.0,46.5,39.0,47.0,39.7,35.0,100,79,49,30.41,30.17,10,0,0,0.00
2013-1-8,68.0,53.3,42.0,57.0,48.8,40.0,100,86,66,30.43,30.28,6,0,0,0.00
2013-1-9,71.0,61.5,54.0,63.5,58.4,53.0,100,90,70,30.45,30.33,7,0,0,0.00
2013-1-10,68.0,58.0,53.0,64.0,56.3,53.0,100,95,68,30.47,30.37,10,0,0,0.11
2013-1-11,75.0,62.8,55.0,71.7,60.8,55.0,100,94,68,30.37,30.22,7,0,0,0.01
2013-1-12,77.0,64.9,58.0,72.0,61.8,58.0,100,91,63,30.29,30.16,10,0,0,0.01
2013-1-13,75.0,62.5,54.0,70.0,60.3,54.0,100,93,68,30.26,30.13,6,0,0,0.00
2013-1-14,75.0,65.0,58.0,69.0,62.7,58.0,100,93,68,30.27,30.16,13,0,0,0.00
2013-1-15,76.0,65.2,59.0,68.0,63.2,59.0,100,94,72,30.25,30.08,6,0,0,0.00
2013-1-16,77.0,67.0,63.0,66.7,63.6,61.5,100,90,62,30.16,30.04,9,0,0,0.00
2013-1-17,77.0,61.5,47.0,66.0,57.9,39.0,100,89,59,30.04,29.83,25,3,0,0.14
2013-1-18,54.0,44.3,37.0,42.0,33.9,24.0,100,70,34,30.47,30.04,20,1,0,0.00
2013-1-19,61.0,47.6,36.0,50.0,40.3,31.0,100,77,49,30.49,30.22,7,0,0,0.00
2013-1-20,67.0,51.7,41.0,52.0,42.3,31.0,100,76,27,30.22,30.07,17,1,0,0.00
2013-1-21,65.0,51.3,38.0,50.0,39.3,33.0,100,69,31,30.15,30.01,16,2,0,0.00
2013-1-22,54.0,45.5,34.0,36.0,29.3,23.0,93,55,33,30.25,30.05,16,2,0,0.00
2013-1-23,51.0,41.2,32.0,41.0,28.8,21.0,98,63,33,30.40,30.18,9,0,0,0.00
2013-1-24,65.0,50.4,34.0,47.5,36.6,21.0,81,60,37,30.44,30.10,23,4,0,0.00
2013-1-25,52.0,39.5,27.0,46.0,31.2,16.0,85,71,59,30.41,30.14,9,0,7,0.00
2013-1-26,59.0,45.0,35.0,45.0,38.7,33.0,99,80,47,30.30,30.09,11,0,12,0.00
2013-1-27,52.0,42.1,34.0,41.0,37.2,32.0,99,84,65,30.53,30.30,10,0,10,0.00
2013-1-28,63.0,49.3,40.0,57.5,46.0,37.0,100,89,68,30.46,30.28,6,0,7,0.00
2013-1-29,75.0,59.1,45.0,66.0,56.7,45.0,100,93,68,30.35,30.17,10,0,12,0.00
2013-1-30,73.0,67.7,61.0,68.5,65.9,60.0,100,94,80,30.17,29.71,28,3,34,0.18
2013-1-31,61.0,50.7,46.0,60.5,33.3,24.0,99,53,33,30.18,29.76,29,7,31,0.15
2013-2-1,58.0,46.6,33.0,33.0,27.0,18.0,64,47,26,30.32,30.14,23,4,27,0.00
2013-2-2,58.0,42.2,28.0,44.0,32.8,16.0,100,70,50,30.38,30.10,6,0,6,0.00
2013-2-3,60.0,50.4,41.0,43.0,34.9,31.0,91,57,36,30.10,29.96,23,4,26,0.00
2013-2-4,58.0,44.7,31.0,41.0,34.6,29.0,100,71,35,30.18,30.01,4,0,5,0.00
2013-2-5,68.0,50.7,36.0,52.0,44.7,36.0,100,83,40,30.12,29.97,17,1,17,0.00
2013-2-6,72.0,55.7,45.0,57.0,50.0,45.0,100,84,41,30.23,30.03,7,0,8,0.00
2013-2-7,59.0,52.9,45.0,58.0,52.7,45.0,100,99,92,30.17,29.72,12,0,14,1.01
2013-2-8,65.0,55.1,48.0,56.0,50.4,47.5,100,85,60,30.07,29.72,21,3,21,0.08
2013-2-9,63.0,48.1,37.0,51.0,36.2,24.0,100,69,25,30.34,30.06,12,0,12,0.00
2013-2-10,64.0,50.7,33.0,58.0,46.3,33.0,100,86,59,30.45,30.22,7,0,9,0.00
2013-2-11,65.0,61.6,59.0,65.0,61.1,57.5,100,99,89,30.28,30.09,15,1,16,1.46
2013-2-12,62.0,56.1,50.0,60.0,55.4,50.0,100,98,80,30.16,29.89,16,0,19,2.71
2013-2-13,73.0,58.3,48.0,69.0,54.2,47.0,100,88,50,29.91,29.76,26,3,28,0.30
2013-2-14,56.0,48.6,42.0,50.5,43.0,38.0,100,83,57,30.08,29.86,12,0,13,0.00
2013-2-15,62.0,47.0,36.0,57.0,41.6,36.0,100,85,46,30.16,29.95,5,0,6,0.00
2013-2-16,57.0,42.4,35.0,49.0,40.0,31.0,100,92,64,30.00,29.82,23,2,23,0.06
2013-2-17,48.0,35.9,27.0,32.0,21.0,8.0,100,59,24,30.27,29.99,25,2,25,0.00
2013-2-18,56.0,39.3,25.0,35.0,28.5,21.0,100,71,26,30.47,30.23,6,0,7,0.00
2013-2-19,66.0,50.6,34.0,57.5,48.6,35.0,100,94,55,30.24,30.01,20,2,20,0.21
2013-2-20,59.0,47.6,34.0,50.0,36.4,26.0,100,69,32,30.20,30.04,10,0,10,0.00
2013-2-21,63.0,46.9,34.0,49.0,41.4,35.0,100,84,46,30.24,30.07,6,0,6,0.00
2013-2-22,62.0,53.8,48.0,62.0,51.9,44.0,100,94,75,30.21,30.06,15,1,15,0.55
2013-2-23,61.0,50.9,45.0,61.0,50.9,45.0,100,100,100,30.06,29.80,12,0,12,2.37
2013-2-24,69.0,54.5,46.0,55.0,50.5,40.0,100,89,42,30.03,29.78,12,1,13,0.01
2013-2-25,50.0,46.1,42.0,49.0,45.8,41.0,100,99,91,30.09,29.94,12,1,12,0.21
2013-2-26,71.0,61.5,48.0,68.0,59.5,48.0,100,94,67,29.95,29.65,18,2,18,0.77
2013-2-27,62.0,53.3,48.0,56.0,43.7,38.0,98,71,52,29.92,29.74,20,4,20,0.00
2013-2-28,60.0,52.4,47.0,43.0,37.5,31.0,83,59,36,29.90,29.82,24,6,27,0.00
2013-3-1,54.0,46.2,39.0,37.0,33.3,31.0,76,61,44,29.96,29.88,13,1,16,0.00
2013-3-2,52.0,43.9,37.0,37.0,34.3,31.0,86,69,45,29.93,29.85,17,4,19,0.00
2013-3-3,50.0,40.6,30.0,37.0,29.4,26.0,100,66,42,30.00,29.87,17,2,21,0.00
2013-3-4,57.0,42.0,28.0,39.0,27.9,21.0,99,61,24,30.20,29.98,16,2,18,0.00
2013-3-5,66.0,53.8,39.0,58.0,45.4,37.0,100,77,36,30.15,29.76,26,2,26,0.00
2013-3-6,60.0,48.3,41.0,55.0,32.1,23.0,88,54,37,30.06,29.73,34,7,34,0.01
2013-3-7,61.0,46.5,36.0,43.0,34.3,29.0,100,65,34,30.25,30.06,13,1,15,0.00
2013-3-8,60.0,45.9,34.0,38.0,31.2,24.0,100,61,26,30.30,30.16,17,1,22,0.00
2013-3-9,64.0,46.6,33.0,44.0,36.9,29.0,100,73,36,30.37,30.20,10,0,12,0.00
2013-3-10,67.0,50.1,36.0,54.0,40.9,36.0,100,76,39,30.35,30.20,3,0,7,0.00
2013-3-11,70.0,58.7,46.0,61.5,54.5,46.0,100,87,61,30.22,29.97,9,0,9,0.00
2013-3-12,70.0,63.8,55.0,64.5,59.9,48.0,100,88,57,29.98,29.87,14,2,20,0.08
2013-3-13,66.0,55.9,44.0,50.5,36.2,26.0,89,52,25,30.18,29.96,21,2,21,0.00
2013-3-14,56.0,45.1,35.0,37.0,26.0,21.0,100,49,28,30.32,30.10,18,1,18,0.00
2013-3-15,66.0,50.9,36.0,50.0,38.5,26.0,100,67,26,30.26,30.07,11,0,12,0.00
2013-3-16,78.0,62.9,54.0,54.0,48.6,43.0,85,62,33,30.08,29.94,19,3,22,0.00
2013-3-17,77.0,64.3,58.0,58.0,53.4,50.0,86,69,44,30.11,29.98,15,3,15,0.00
2013-3-18,66.0,60.6,56.0,64.5,58.2,53.5,100,92,75,30.14,29.89,30,0,30,0.29
2013-3-19,76.0,61.7,53.0,61.0,53.0,38.0,100,78,28,30.02,29.84,21,2,21,0.35
2013-3-20,65.0,53.1,40.0,41.0,33.4,21.0,99,50,21,30.15,29.81,10,0,11,0.00
2013-3-21,59.0,48.3,37.0,43.0,27.3,16.0,100,49,20,29.92,29.78,19,3,22,0.00
2013-3-22,56.0,44.4,35.0,41.0,29.3,21.0,76,56,33,30.12,29.92,7,0,7,0.00
2013-3-23,56.0,47.7,41.0,54.0,45.3,39.0,100,93,59,30.06,29.89,7,0,9,0.40
2013-3-24,65.0,52.9,46.0,65.0,52.9,46.0,100,100,100,29.89,29.50,17,2,17,2.85
2013-3-25,56.0,49.2,43.0,48.0,35.4,23.0,100,63,30,29.95,29.57,34,6,34,0.06
2013-3-26,52.0,43.4,35.0,33.0,27.7,24.0,72,54,37,30.16,29.95,21,3,21,0.00
2013-3-27,59.0,45.7,31.0,39.0,30.6,26.0,98,60,29,30.29,30.15,16,2,16,0.00
2013-3-28,62.0,46.3,30.0,38.0,31.1,24.0,100,61,26,30.33,30.18,17,1,19,0.00
2013-3-29,64.0,48.6,33.0,48.0,37.4,33.0,100,71,35,30.40,30.25,3,0,6,0.00
2013-3-30,72.0,58.5,48.0,56.0,48.4,37.0,100,74,30,30.26,30.13,9,0,12,0.00
2013-3-31,72.0,63.8,57.0,59.0,55.8,52.0,92,76,58,30.14,29.96,11,1,16,0.02
2013-4-1,77.0,66.1,57.0,63.0,58.6,54.0,100,79,50,30.00,29.92,15,2,16,0.01
2013-4-2,65.0,56.0,47.0,57.0,47.9,39.0,100,78,43,30.20,29.97,9,0,9,0.00
2013-4-3,71.0,55.9,48.0,58.0,49.3,42.0,100,81,54,30.26,30.08,9,0,11,0.00
2013-4-4,64.0,55.4,50.0,64.0,52.5,43.0,100,90,67,30.27,29.86,14,1,14,0.50
2013-4-5,63.0,51.1,44.0,53.5,47.9,44.0,100,90,64,30.03,29.86,16,1,16,0.15
2013-4-6,70.0,55.7,43.0,60.0,48.0,37.0,100,80,33,30.27,30.03,16,0,16,0.00
2013-4-7,73.0,60.5,48.0,64.0,55.5,48.0,100,86,46,30.34,30.18,8,0,9,0.00
2013-4-8,79.0,64.8,51.0,69.0,59.1,51.0,100,84,53,30.31,30.14,6,0,7,0.00
2013-4-9,83.0,69.0,58.0,70.0,62.0,57.5,100,82,45,30.35,30.16,10,0,10,0.00
2013-4-10,81.0,68.7,58.0,70.0,62.2,57.5,100,83,49,30.30,30.08,9,0,9,0.00
2013-4-11,79.0,69.2,60.0,72.7,67.7,60.0,100,95,75,30.12,29.92,9,0,10,0.00
2013-4-12,80.0,70.2,66.0,73.0,69.4,66.0,100,97,78,29.94,29.82,13,1,14,0.41
2013-4-13,79.0,64.5,55.0,67.0,53.1,47.5,100,70,35,30.08,29.88,10,0,12,0.00
2013-4-14,73.0,61.9,51.0,67.5,59.1,51.0,100,92,68,30.17,30.00,6,0,10,0.23
2013-4-15,74.0,66.0,61.0,69.3,64.0,61.0,100,94,71,30.20,29.92,9,0,10,0.78
2013-4-16,81.0,68.2,58.0,73.0,62.7,58.0,100,85,52,30.36,30.19,6,0,6,0.00
2013-4-17,81.0,68.3,59.0,74.0,62.9,59.0,100,85,51,30.32,30.20,6,0,6,0.00
2013-4-18,81.0,70.4,62.0,72.0,66.1,62.0,100,88,60,30.26,30.10,10,0,10,0.00
2013-4-19,79.0,71.5,67.0,73.7,70.0,67.0,100,95,79,30.10,29.95,23,2,23,1.11
2013-4-20,68.0,55.6,45.0,68.0,51.8,43.0,100,88,57,30.24,29.97,20,1,20,0.45
2013-4-21,68.0,55.8,44.0,54.5,49.1,44.0,100,80,55,30.39,30.22,16,1,16,0.00
2013-4-22,71.0,57.4,48.0,54.0,47.7,38.0,90,71,51,30.32,30.19,15,1,17,0.00
2013-4-23,69.0,57.9,51.0,57.5,53.1,48.0,100,85,64,30.26,30.16,12,0,13,0.00
2013-4-24,79.0,63.6,48.0,66.0,56.9,48.0,100,82,49,30.28,30.14,8,0,9,0.00
2013-4-25,85.0,68.9,62.0,69.0,64.5,62.0,100,88,49,30.28,30.14,29,1,38,1.83
2013-4-26,73.0,63.7,54.0,67.0,55.4,39.0,100,79,32,30.47,30.26,10,0,10,0.00
2013-4-27,73.0,62.4,54.0,65.5,55.7,48.0,100,81,45,30.40,30.26,5,0,6,0.00
2013-4-28,76.0,65.7,55.0,68.0,62.8,55.0,100,91,68,30.28,30.10,7,0,8,0.01
2013-4-29,83.0,68.8,62.0,72.7,65.8,62.0,100,91,58,30.13,30.02,14,0,17,0.79
2013-4-30,78.0,66.2,61.0,69.7,64.5,61.0,100,95,71,30.14,30.00,8,0,9,0.05
2013-5-1,74.0,64.3,58.0,65.0,61.1,58.0,100,90,63,30.24,30.10,11,0,12,0.00
2013-5-2,73.0,65.9,64.0,68.5,63.9,57.5,100,93,76,30.24,30.16,13,1,13,0.03
2013-5-3,68.0,62.5,59.0,65.0,59.6,52.0,100,91,73,30.16,30.04,15,1,15,0.19
2013-5-4,66.0,61.3,58.0,63.5,59.7,54.5,100,95,83,30.04,29.94,17,1,19,0.09
2013-5-5,70.0,64.5,61.0,68.0,63.7,61.0,100,98,86,29.95,29.84,12,1,12,0.79
2013-5-6,75.0,64.9,55.0,66.0,57.3,50.5,100,80,47,30.00,29.86,15,1,16,0.01
2013-5-7,72.0,61.2,53.0,62.5,56.7,52.0,100,86,61,30.03,29.92,10,0,10,0.05
2013-5-8,80.0,65.5,51.0,64.0,57.5,51.0,100,79,48,30.14,29.98,17,1,17,0.00
2013-5-9,84.0,71.4,62.0,66.0,62.3,57.5,100,76,44,30.21,30.06,12,1,14,0.00
2013-5-10,89.0,73.5,61.0,68.5,63.7,60.0,100,74,44,30.22,30.09,7,0,8,0.00
2013-5-11,85.0,74.5,68.0,71.7,67.2,59.5,100,80,47,30.10,29.96,14,1,16,0.00
2013-5-12,83.0,73.8,64.0,69.7,61.7,52.0,99,69,37,30.06,29.92,22,3,22,0.00
2013-5-13,74.0,63.8,54.0,54.5,45.2,39.0,96,53,31,30.19,30.02,16,1,17,0.00
2013-5-14,76.0,62.3,47.0,56.5,50.8,45.0,100,71,34,30.36,30.14,7,0,7,0.00
2013-5-15,84.0,70.8,56.0,63.0,58.9,53.5,100,69,40,30.28,30.10,15,1,15,0.00
2013-5-16,85.0,74.5,67.0,69.0,63.2,59.0,91,69,47,30.20,30.06,16,2,18,0.00
2013-5-17,88.0,74.7,65.0,70.0,65.9,62.0,100,77,44,30.25,30.09,10,0,11,0.00
2013-5-18,86.0,74.0,65.0,72.0,67.8,64.0,100,83,52,30.28,30.15,10,0,11,0.00
2013-5-19,83.0,73.5,66.0,73.7,70.2,65.0,100,90,67,30.25,30.14,6,0,7,0.04
2013-5-20,82.0,73.6,69.0,77.0,71.4,69.0,100,93,70,30.22,30.12,7,0,7,0.24
2013-5-21,76.0,69.7,65.0,76.0,69.7,65.0,100,100,100,30.18,30.06,17,0,17,2.05
2013-5-22,86.0,74.0,64.0,81.0,69.9,64.0,100,89,58,30.16,30.03,7,0,7,0.00
2013-5-23,86.0,75.4,66.0,77.0,70.7,66.0,100,87,63,30.06,29.95,9,0,9,0.00
2013-5-24,82.0,73.9,63.0,71.0,58.3,41.0,100,61,27,30.22,29.93,19,2,22,0.00
2013-5-25,80.0,65.6,53.0,59.5,47.5,36.0,98,56,22,30.38,30.19,14,0,14,0.00
2013-5-26,84.0,69.0,55.0,65.0,59.0,54.5,100,75,41,30.37,30.20,12,1,12,0.00
2013-5-27,86.0,71.8,59.0,73.0,63.4,59.0,100,79,47,30.38,30.23,6,0,6,0.00
2013-5-28,85.0,73.4,63.0,74.0,65.6,62.0,100,79,49,30.39,30.24,6,0,6,0.00
2013-5-29,81.0,69.8,65.0,73.0,67.1,65.0,100,92,63,30.38,30.22,5,0,6,0.00
2013-5-30,86.0,74.7,65.0,76.0,70.0,65.0,100,87,59,30.39,30.24,6,0,7,0.00
2013-5-31,87.0,76.0,68.0,76.8,71.0,68.0,100,86,58,30.35,30.23,6,0,6,0.00
2013-6-1,87.0,75.8,68.0,77.0,70.3,68.0,100,85,56,30.28,30.16,8,0,8,0.00
2013-6-2,86.0,75.9,69.0,78.3,72.6,69.0,100,91,64,30.18,30.04,7,0,9,0.09
2013-6-3,82.0,74.4,69.0,78.0,74.1,69.0,100,99,83,30.05,29.95,15,0,18,1.21
2013-6-4,87.0,76.0,71.0,81.0,74.4,71.0,100,95,72,30.13,29.99,7,0,9,0.03
2013-6-5,82.0,74.2,70.0,78.0,73.3,70.0,100,97,77,30.14,30.03,9,0,10,1.00
2013-6-6,78.0,73.2,69.0,78.0,73.2,69.0,100,100,98,30.05,29.78,9,0,9,2.26
2013-6-7,86.0,76.4,72.0,76.0,73.4,70.0,100,92,63,29.97,29.61,26,3,29,0.21
2013-6-8,89.0,79.7,74.0,76.5,74.4,71.0,100,85,63,30.20,29.96,15,1,15,0.00
2013-6-9,88.0,78.6,73.0,81.3,74.6,72.0,100,89,66,30.27,30.17,6,0,6,0.00
2013-6-10,87.0,78.4,69.0,77.0,74.7,69.0,100,89,68,30.22,30.09,27,0,27,0.63
2013-6-11,90.0,78.0,70.0,77.0,73.6,70.0,100,88,57,30.17,30.04,16,1,16,0.12
2013-6-12,95.0,83.2,73.0,80.0,75.2,69.3,100,80,46,30.16,30.03,12,0,12,0.01
2013-6-13,96.0,85.3,77.0,80.0,77.2,72.7,100,80,51,30.04,29.84,17,1,17,0.00
2013-6-14,90.0,79.5,68.0,77.0,66.0,55.0,100,67,34,30.07,29.83,11,1,13,0.00
2013-6-15,84.0,74.0,65.0,73.7,63.8,54.5,100,74,42,30.27,30.07,8,0,10,0.00
2013-6-16,89.0,76.2,65.0,70.0,65.5,63.0,100,73,45,30.31,30.16,7,0,7,0.00
2013-6-17,89.0,77.8,70.0,76.5,72.7,69.0,100,86,55,30.20,30.09,10,0,11,0.20
2013-6-18,88.0,77.6,70.0,79.0,74.1,70.0,100,91,61,30.10,29.96,22,1,22,1.15
2013-6-19,90.0,77.0,71.0,78.0,74.0,71.0,100,92,57,30.13,30.00,16,1,16,2.63
2013-6-20,80.0,73.7,70.0,76.3,71.4,66.3,100,93,76,30.26,30.10,12,0,14,0.01
2013-6-21,87.0,75.5,68.0,74.0,70.4,66.7,100,86,56,30.30,30.18,11,0,11,0.00
2013-6-22,88.0,76.1,68.0,75.5,71.9,68.0,100,88,62,30.30,30.17,7,0,7,0.00
2013-6-23,88.0,78.1,71.0,79.0,74.5,71.0,100,90,65,30.32,30.21,6,0,7,0.00
2013-6-24,88.0,78.0,73.0,83.0,75.5,72.7,100,93,66,30.37,30.25,10,0,10,0.29
2013-6-25,91.0,80.3,73.0,79.3,75.1,70.5,100,86,59,30.31,30.17,11,0,11,0.09
2013-6-26,91.0,77.6,71.0,77.7,74.0,70.5,100,90,56,30.21,30.05,13,1,16,0.58
2013-6-27,92.0,80.3,75.0,80.5,76.7,72.0,100,90,59,30.10,29.92,19,1,22,0.05
2013-6-28,92.0,82.6,76.0,80.0,76.1,71.7,98,82,63,29.95,29.79,17,2,19,0.00
2013-6-29,89.0,79.1,72.0,77.7,74.1,70.5,100,86,61,29.88,29.80,17,1,17,0.08
2013-6-30,84.0,76.0,70.0,82.0,75.1,70.0,100,97,78,29.95,29.84,18,0,18,2.13
2013-7-1,83.0,77.1,73.0,80.0,75.9,73.0,100,96,81,30.11,29.92,11,0,15,0.46
2013-7-2,82.0,76.5,72.0,78.3,75.0,72.0,100,96,81,30.26,30.11,8,0,8,0.42
2013-7-3,86.0,77.7,74.0,81.0,76.1,73.7,100,95,71,30.34,30.21,8,0,8,0.39
2013-7-4,86.0,78.5,74.0,79.3,76.4,74.0,100,94,75,30.37,30.27,9,0,10,0.06
2013-7-5,88.0,79.0,74.0,80.0,76.6,74.0,100,93,70,30.38,30.28,6,0,7,0.29
2013-7-6,85.0,77.3,71.0,82.0,75.0,71.0,100,93,74,30.35,30.25,7,0,7,0.13
2013-7-7,90.0,79.1,72.0,81.0,73.6,71.0,100,85,60,30.35,30.22,4,0,5,0.02
2013-7-8,90.0,79.0,70.0,79.0,72.9,70.0,100,84,56,30.34,30.23,6,0,6,0.00
2013-7-9,92.0,79.7,71.0,80.5,73.7,70.5,100,84,52,30.35,30.22,5,0,5,0.00
2013-7-10,91.0,80.5,71.0,79.0,73.6,71.0,100,82,54,30.24,30.10,5,0,6,0.00
2013-7-11,90.0,80.5,73.0,77.3,74.7,72.0,100,84,61,30.14,30.01,13,0,15,0.00
2013-7-12,79.0,74.6,72.0,78.0,74.2,72.0,100,99,88,30.06,29.96,10,0,10,0.42
2013-7-13,85.0,76.5,72.0,83.0,75.0,72.0,100,96,79,30.17,30.02,9,0,9,0.46
2013-7-14,86.0,78.4,72.0,78.7,75.5,72.0,100,91,75,30.34,30.16,7,0,13,0.12
2013-7-15,87.0,79.6,74.0,78.7,76.0,74.0,100,90,71,30.39,30.27,12,0,12,0.01
2013-7-16,90.0,79.7,73.0,81.0,74.4,71.0,100,86,60,30.42,30.21,8,0,9,0.00
2013-7-17,94.0,79.9,71.0,82.0,74.0,70.0,100,85,51,30.37,30.22,9,0,9,0.13
2013-7-18,93.0,79.9,70.0,79.0,73.2,70.0,100,83,52,30.31,30.20,5,0,6,0.00
2013-7-19,90.0,80.0,72.0,79.0,74.0,72.0,100,84,59,30.28,30.15,6,0,7,0.02
2013-7-20,89.0,79.0,73.0,78.0,75.0,72.0,100,89,59,30.22,30.12,9,0,9,0.31
2013-7-21,87.0,77.7,73.0,79.0,74.6,72.0,100,92,70,30.18,30.07,9,2,9,0.30
2013-7-22,90.0,80.2,75.0,76.0,73.9,71.0,100,83,57,30.15,30.03,9,3,9,0.00
2013-7-23,89.0,80.7,75.0,76.0,72.9,70.0,98,80,56,30.05,29.93,9,3,9,0.00
2013-7-24,86.0,78.4,73.0,81.0,74.4,71.0,100,89,70,29.96,29.86,9,1,9,0.34
2013-7-25,91.0,78.7,72.0,81.0,75.2,72.0,100,91,59,30.07,29.86,7,0,7,0.35
2013-7-26,87.0,77.8,71.0,81.0,74.7,71.0,100,92,73,30.20,30.05,7,0,8,0.00
2013-7-27,87.0,79.0,73.0,79.0,75.6,73.0,100,91,70,30.16,30.02,6,0,6,0.00
2013-7-28,91.0,79.6,73.0,78.0,75.5,71.0,100,89,63,30.13,30.01,9,0,9,0.03
2013-7-29,94.0,78.2,73.0,79.0,75.4,72.0,100,93,54,30.25,30.10,9,0,9,0.10
2013-7-30,90.0,78.4,73.0,84.0,75.9,73.0,100,93,71,30.31,30.20,6,0,6,0.01
2013-7-31,92.0,76.1,70.0,79.0,74.6,70.0,100,96,59,30.27,30.11,9,0,9,1.68
2013-8-1,86.0,77.3,71.0,79.0,74.6,71.0,100,92,71,30.11,29.89,12,1,12,0.14
2013-8-2,91.0,80.2,73.0,77.0,75.4,73.0,100,87,61,30.17,30.03,11,0,12,0.00
2013-8-3,93.0,80.3,74.0,83.0,76.4,74.0,100,90,59,30.17,30.05,6,0,6,0.17
2013-8-4,94.0,82.5,76.0,79.0,75.0,71.0,100,81,50,30.11,30.02,10,1,10,0.00
2013-8-5,86.0,78.3,73.0,76.0,70.1,64.0,100,78,52,30.18,30.05,8,0,8,0.00
2013-8-6,88.0,78.1,71.0,73.0,70.6,68.0,100,79,56,30.19,30.04,5,0,6,0.00
2013-8-7,90.0,78.3,69.0,77.0,71.5,67.0,100,82,54,30.21,30.09,6,0,8,0.00
2013-8-8,90.0,76.9,71.0,85.0,75.4,71.0,100,96,68,30.18,30.08,15,0,15,1.04
2013-8-9,92.0,81.6,75.0,80.0,76.0,72.0,100,85,56,30.27,30.11,9,0,10,0.06
2013-8-10,93.0,82.4,74.0,80.0,75.7,73.0,100,83,57,30.29,30.18,10,0,10,0.01
2013-8-11,95.0,84.1,77.0,79.0,76.6,71.0,100,81,49,30.30,30.18,13,1,13,0.00
2013-8-12,96.0,84.2,77.0,80.0,76.6,71.0,99,81,48,30.22,30.09,12,1,13,0.01
2013-8-13,94.0,84.5,77.0,80.0,76.9,72.0,100,80,51,30.12,29.97,17,1,17,0.01
2013-8-14,90.0,78.2,72.0,79.0,75.0,72.0,100,91,63,30.08,29.96,16,1,16,3.01
2013-8-15,72.0,67.2,64.0,72.0,67.2,64.0,100,100,100,30.16,30.03,10,0,13,1.88
2013-8-16,79.0,71.1,66.0,77.0,70.6,66.0,100,99,90,30.16,30.08,7,0,9,0.01
2013-8-17,84.0,73.8,71.0,74.0,72.1,71.0,100,95,71,30.24,30.10,10,0,11,0.05
2013-8-18,90.0,77.7,70.0,79.0,73.5,70.0,100,89,62,30.33,30.19,6,0,6,0.09
2013-8-19,92.0,79.4,73.0,83.0,75.1,73.0,100,89,59,30.28,30.15,12,0,12,0.07
2013-8-20,91.0,79.1,73.0,82.0,75.5,73.0,100,90,62,30.30,30.14,4,0,6,0.01
2013-8-21,91.0,80.4,72.0,83.0,75.4,72.0,100,87,61,30.37,30.21,4,0,5,0.00
2013-8-22,92.0,79.6,73.0,78.0,74.4,70.0,100,86,52,30.27,30.14,5,0,6,0.02
2013-8-23,94.0,79.6,72.0,79.0,73.9,70.0,100,86,48,30.19,30.06,12,0,12,0.46
2013-8-24,84.0,76.2,71.0,77.0,73.1,69.0,100,91,67,30.29,30.10,10,0,10,0.00
2013-8-25,84.0,73.8,66.0,71.0,67.4,62.0,100,83,52,30.41,30.27,9,0,10,0.00
2013-8-26,85.0,74.3,67.0,71.0,67.7,64.0,100,82,59,30.37,30.21,8,0,9,0.00
2013-8-27,87.0,74.7,65.0,76.0,67.1,63.0,100,80,47,30.23,30.10,7,0,7,0.00
2013-8-28,90.0,78.4,69.0,74.0,70.7,67.0,100,80,49,30.16,30.06,12,1,12,0.00
2013-8-29,94.0,81.6,74.0,78.0,73.5,70.0,100,79,51,30.08,29.98,13,1,13,0.16
2013-8-30,88.0,78.2,72.0,79.0,74.9,72.0,100,91,67,30.14,29.99,7,0,7,0.00
2013-8-31,92.0,79.2,71.0,80.0,74.0,68.0,100,87,47,30.13,29.99,7,0,7,0.00
2013-9-1,93.0,82.0,74.0,79.0,75.7,72.0,100,84,53,30.10,29.98,10,0,11,0.00
2013-9-2,92.0,79.4,69.0,81.0,75.2,68.0,100,89,59,30.09,29.92,22,1,22,1.42
2013-9-3,92.0,79.2,72.0,79.0,74.2,70.0,100,87,54,30.07,29.94,19,2,19,0.82
2013-9-4,94.0,79.7,70.0,81.0,74.6,70.0,100,87,56,30.20,30.02,9,0,9,0.00
2013-9-5,92.0,80.5,73.0,79.0,74.9,70.0,100,86,56,30.24,30.11,7,0,8,0.00
2013-9-6,90.0,78.0,68.0,74.0,69.3,62.0,100,79,42,30.24,30.11,9,0,9,0.00
2013-9-7,88.0,75.5,69.0,75.0,70.2,65.0,100,86,51,30.21,30.07,7,0,10,0.00
2013-9-8,90.0,76.1,66.0,75.0,69.5,64.0,100,83,48,30.12,30.02,6,0,6,0.00
2013-9-9,89.0,77.3,69.0,79.0,71.7,69.0,100,85,61,30.23,30.05,7,0,7,0.00
2013-9-10,88.0,76.8,69.0,77.0,71.4,67.0,100,86,55,30.35,30.19,9,0,12,0.00
2013-9-11,86.0,76.6,70.0,80.0,71.7,67.0,100,87,56,30.30,30.17,7,0,9,0.00
2013-9-12,92.0,77.8,68.0,78.0,70.6,66.0,100,82,46,30.18,29.97,7,0,7,0.00
2013-9-13,92.0,77.2,70.0,78.0,72.6,69.0,100,88,49,29.98,29.82,12,1,12,0.88
2013-9-14,85.0,74.1,65.0,75.0,69.9,63.0,100,88,71,30.13,29.87,10,0,10,0.02
2013-9-15,86.0,75.7,67.0,76.0,72.0,66.0,100,90,65,30.28,30.12,10,0,10,0.00
2013-9-16,93.0,77.3,71.0,80.0,73.6,68.0,100,91,47,30.26,30.12,15,0,16,0.76
2013-9-17,79.0,72.0,66.0,71.0,67.5,63.0,100,87,62,30.31,30.14,10,0,13,0.06
2013-9-18,79.0,68.2,61.0,65.0,60.0,52.0,100,78,44,30.31,30.20,12,0,12,0.00
2013-9-19,85.0,71.8,63.0,69.0,64.5,60.0,100,80,53,30.28,30.14,6,0,6,0.00
2013-9-20,85.0,72.5,63.0,76.0,66.5,63.0,100,84,56,30.22,30.02,6,0,6,0.00
2013-9-21,88.0,75.7,66.0,78.0,69.4,66.0,100,83,54,30.03,29.83,7,0,7,0.00
2013-9-22,80.0,73.3,67.0,74.0,69.8,66.0,100,90,69,29.93,29.79,16,1,16,0.08
2013-9-23,80.0,70.1,62.0,71.0,63.0,58.0,100,81,50,30.13,29.92,6,0,7,0.00
2013-9-24,80.0,68.9,61.0,66.0,63.1,60.0,100,84,59,30.16,29.97,9,0,10,0.00
2013-9-25,78.0,70.7,65.0,69.0,66.4,63.0,100,88,68,29.98,29.87,7,0,8,0.00
2013-9-26,75.0,67.1,62.0,70.0,65.5,60.0,100,95,78,30.00,29.84,16,0,16,1.77
2013-9-27,79.0,67.7,59.0,67.0,62.6,58.0,100,85,62,30.16,29.98,10,0,10,0.00
2013-9-28,77.0,66.2,57.0,65.0,60.7,57.0,100,84,63,30.23,30.11,10,0,10,0.00
2013-9-29,79.0,66.2,57.0,64.0,59.3,56.0,100,82,50,30.20,30.06,11,0,13,0.00
2013-9-30,79.0,64.0,53.0,69.0,59.2,53.0,100,87,52,30.16,30.02,7,0,9,0.00
2013-10-1,82.0,67.3,57.0,64.0,60.0,56.0,100,81,46,30.24,30.07,11,0,11,0.00
2013-10-2,86.0,69.2,59.0,67.0,62.5,59.0,100,83,42,30.26,30.11,10,0,11,0.00
2013-10-3,82.0,69.7,61.0,72.0,66.7,61.0,100,91,69,30.24,30.12,6,0,7,0.00
2013-10-4,87.0,72.6,64.0,77.0,68.8,64.0,100,90,55,30.26,30.12,5,0,6,0.00
2013-10-5,86.0,73.1,64.0,76.0,68.2,64.0,100,87,56,30.24,30.12,7,0,7,0.00
2013-10-6,86.0,74.5,67.0,81.0,71.6,67.0,100,92,65,30.16,30.01,9,0,9,0.48
2013-10-7,83.0,74.1,71.0,82.0,73.8,71.0,100,99,81,30.02,29.91,7,0,7,0.75
2013-10-8,73.0,65.4,58.0,72.0,64.8,58.0,100,98,92,30.10,29.91,15,1,17,0.02
2013-10-9,76.0,64.3,56.0,65.0,60.0,56.0,100,87,66,30.15,30.05,15,2,18,0.00
2013-10-10,77.0,65.4,57.0,63.0,59.9,56.0,100,84,60,30.12,30.02,17,2,19,0.00
2013-10-11,81.0,69.1,63.0,66.0,63.7,61.0,100,85,54,30.09,29.99,12,1,12,0.00
2013-10-12,86.0,71.5,64.0,70.0,66.5,64.0,100,87,50,30.14,29.98,5,0,6,0.00
2013-10-13,77.0,69.3,64.0,69.0,66.2,64.0,100,91,69,30.22,30.09,15,0,15,0.00
2013-10-14,76.0,68.9,65.0,69.0,66.9,65.0,100,94,78,30.19,30.12,12,0,12,0.00
2013-10-15,76.0,66.0,61.0,65.0,62.3,60.0,100,89,62,30.16,30.06,11,0,12,0.00
2013-10-16,74.0,66.3,60.0,69.0,64.1,60.0,100,93,75,30.13,30.02,7,0,9,0.00
2013-10-17,83.0,69.2,58.0,73.0,64.7,58.0,100,88,60,30.11,29.98,5,0,7,0.00
2013-10-18,85.0,73.6,67.0,77.0,71.0,67.0,100,93,65,30.08,29.96,8,0,9,0.00
2013-10-19,82.0,72.7,67.0,74.0,70.2,63.0,100,93,69,30.03,29.96,13,0,13,0.12
2013-10-20,74.0,65.7,60.0,63.0,59.5,55.0,95,82,64,30.12,29.96,12,0,12,0.00
2013-10-21,70.0,63.7,59.0,65.0,60.6,55.0,100,91,82,30.17,30.05,7,0,9,0.00
2013-10-22,66.0,62.5,59.0,64.0,61.4,59.0,100,97,85,30.06,29.90,3,0,4,0.04
2013-10-23,72.0,63.8,56.0,63.0,53.0,39.0,100,72,34,30.04,29.80,20,3,22,0.02
2013-10-24,68.0,53.6,44.0,50.0,41.3,36.0,100,67,37,30.25,30.03,10,0,12,0.00
2013-10-25,64.0,53.2,46.0,53.0,44.4,37.0,100,75,42,30.35,30.14,15,0,15,0.00
2013-10-26,67.0,51.4,38.0,50.0,42.0,35.0,100,73,46,30.35,30.15,9,0,10,0.00
2013-10-27,73.0,55.8,42.0,57.0,48.9,41.0,100,82,44,30.21,30.08,10,1,12,0.00
2013-10-28,76.0,61.5,53.0,67.0,57.6,53.0,100,89,56,30.33,30.14,9,0,9,0.00
2013-10-29,78.0,61.3,52.0,68.0,56.9,52.0,100,88,47,30.42,30.24,7,0,8,0.00
2013-10-30,78.0,62.6,53.0,70.0,58.1,53.0,100,88,49,30.41,30.24,6,0,6,0.00
2013-10-31,81.0,66.0,54.0,72.0,63.4,54.0,100,92,66,30.27,30.05,4,0,4,0.02
2013-11-1,79.0,72.7,68.0,73.0,70.5,68.0,100,93,71,30.06,29.83,15,1,19,0.08
2013-11-2,71.0,65.5,64.0,71.0,64.8,60.0,100,98,75,29.90,29.80,13,2,13,0.84
2013-11-3,67.0,55.2,48.0,48.0,45.0,41.0,96,72,41,30.30,30.21,13,0,15,0.00
2013-11-4,66.0,54.1,47.0,50.0,45.1,39.0,91,74,40,30.47,30.28,10,0,11,0.00
2013-11-5,64.0,52.9,42.0,60.0,50.4,40.0,100,92,75,30.45,30.32,10,0,12,0.02
2013-11-6,75.0,63.8,54.0,67.0,61.7,54.0,100,94,74,30.33,30.14,7,0,7,0.04
2013-11-7,76.0,66.3,60.0,68.0,64.2,59.0,100,94,69,30.14,30.02,11,1,12,0.01
2013-11-8,61.0,51.0,39.0,59.0,39.3,33.0,100,67,37,30.32,30.07,13,0,13,0.00
2013-11-9,65.0,52.6,41.0,54.0,46.7,38.0,100,82,57,30.39,30.24,7,0,7,0.00
2013-11-10,70.0,57.6,49.0,59.0,52.0,47.0,100,85,46,30.30,30.18,10,0,12,0.00
2013-11-11,66.0,53.6,46.0,54.0,47.9,39.0,100,83,59,30.33,30.16,9,0,9,0.00
2013-11-12,71.0,55.6,42.0,57.0,46.1,31.0,100,74,41,30.32,30.07,25,1,25,0.00
2013-11-13,49.0,38.8,29.0,33.0,27.0,18.0,93,65,31,30.50,30.30,19,1,19,0.00
2013-11-14,60.0,44.2,29.0,47.0,36.9,24.0,100,77,49,30.51,30.30,7,0,8,0.00
2013-11-15,65.0,57.1,44.0,62.0,56.3,44.0,100,97,88,30.35,30.18,1,0,8,0.01
2013-11-16,74.0,62.7,56.0,69.0,60.0,56.0,100,92,68,30.30,30.19,5,0,7,0.00
2013-11-17,77.0,65.2,55.0,73.0,64.6,55.0,100,98,85,30.21,30.06,4,0,6,0.02
2013-11-18,80.0,70.7,63.0,72.0,67.8,50.0,100,92,63,30.06,29.91,15,2,15,0.01
2013-11-19,63.0,53.2,45.0,52.0,39.9,33.0,87,62,39,30.19,29.95,10,0,12,0.00
2013-11-20,59.0,51.5,44.0,50.0,44.5,37.0,83,77,71,30.33,30.17,10,0,12,0.00
2013-11-21,72.0,58.7,51.0,63.0,55.4,47.0,100,90,73,30.41,30.31,4,0,9,0.00
2013-11-22,74.0,64.4,58.0,71.0,63.0,58.0,100,96,77,30.39,30.20,4,0,5,0.03
2013-11-23,69.0,62.8,56.0,68.0,62.2,54.0,100,98,89,30.20,30.05,12,1,12,0.07
2013-11-24,56.0,42.1,31.0,54.0,28.0,18.0,95,58,33,30.47,30.12,15,1,15,0.00
2013-11-25,51.0,40.2,29.0,50.0,29.9,14.0,100,68,44,30.50,30.25,10,0,10,0.00
2013-11-26,69.0,58.9,44.0,69.0,58.8,44.0,100,100,93,30.25,29.66,14,0,15,1.24
2013-11-27,67.0,53.2,38.0,67.0,52.2,35.0,100,96,87,30.18,29.56,25,4,26,0.15
2013-11-28,46.0,35.3,27.0,35.0,29.2,23.0,100,80,43,30.44,30.17,9,0,10,0.00
2013-11-29,56.0,41.4,29.0,43.0,35.2,29.0,100,80,47,30.55,30.41,5,0,9,0.00
2013-11-30,60.0,46.4,35.0,48.0,39.7,31.0,91,78,58,30.52,30.31,10,0,12,0.00
2013-12-1,63.0,52.6,46.0,57.0,49.3,42.0,100,89,78,30.31,30.02,8,0,8,0.00
2013-12-2,64.0,53.4,44.0,54.0,49.7,44.0,100,89,51,30.02,29.85,12,0,12,0.00
2013-12-3,70.0,54.8,43.0,59.0,50.4,43.0,100,88,50,30.06,29.87,6,0,8,0.01
2013-12-4,76.0,62.4,55.0,65.0,59.6,55.0,100,92,65,30.14,30.00,12,1,12,0.00
2013-12-5,77.0,65.6,56.0,72.0,63.1,56.0,100,93,71,30.27,30.12,6,0,6,0.01
2013-12-6,78.0,69.2,65.0,71.0,67.3,65.0,100,94,76,30.27,30.16,12,1,17,0.00
2013-12-7,77.0,62.8,48.0,71.0,61.8,48.0,100,97,79,30.35,30.16,11,1,12,0.60
2013-12-8,49.0,46.1,44.0,48.0,46.1,44.0,100,100,100,30.33,30.24,9,0,10,0.13
2013-12-9,74.0,55.6,44.0,69.0,55.0,44.0,100,98,81,30.25,30.10,6,0,7,0.01
2013-12-10,72.0,62.0,46.0,69.0,60.1,46.0,100,94,72,30.30,30.04,19,2,23,0.07
2013-12-11,55.0,45.5,34.0,46.0,39.7,32.0,100,82,47,30.45,30.28,6,0,10,0.00
2013-12-12,56.0,43.0,31.0,43.0,35.0,28.0,100,77,36,30.40,30.24,10,0,10,0.00
2013-12-13,58.0,42.2,28.0,43.0,34.8,28.0,100,78,40,30.44,30.24,5,0,5,0.00
2013-12-14,69.0,60.3,47.0,67.0,59.4,42.0,100,97,85,30.24,29.85,16,1,17,0.91
2013-12-15,65.0,55.9,44.0,65.0,53.4,43.0,100,92,74,30.12,29.84,19,2,19,0.05
2013-12-16,61.0,45.9,35.0,51.0,41.0,35.0,100,86,39,30.25,30.11,9,0,9,0.00
2013-12-17,66.0,52.6,43.0,47.0,40.9,36.0,100,68,34,30.25,30.10,17,2,17,0.00
2013-12-18,59.0,47.8,34.0,41.0,35.8,29.0,100,66,34,30.31,30.10,17,2,17,0.00
2013-12-19,64.0,46.1,30.0,56.0,41.4,31.0,100,87,50,30.42,30.24,4,0,4,0.00
2013-12-20,73.0,57.0,46.0,64.0,53.8,46.0,100,91,61,30.33,30.20,10,0,12,0.00
2013-12-21,76.0,64.0,52.0,73.0,62.6,52.0,100,96,76,30.28,30.18,4,0,4,0.00
2013-12-22,79.0,70.1,66.0,73.0,68.7,66.0,100,96,79,30.26,30.16,17,1,22,0.00
2013-12-23,76.0,67.3,58.0,71.0,66.6,58.0,100,98,83,30.22,30.12,12,1,14,0.37
2013-12-24,59.0,51.8,40.0,58.0,45.8,35.0,100,82,50,30.35,30.10,17,2,18,0.05
2013-12-25,52.0,40.2,31.0,38.0,32.3,24.0,85,73,55,30.47,30.32,11,0,11,0.00
2013-12-26,51.0,44.2,39.0,47.0,40.4,32.0,100,86,75,30.32,30.25,10,0,11,0.00
2013-12-27,59.0,47.1,39.0,41.0,36.8,32.0,91,69,39,30.44,30.30,9,0,11,0.00
2013-12-28,63.0,49.0,34.0,56.0,44.7,33.0,100,86,60,30.40,30.07,7,0,7,0.11
2013-12-29,73.0,63.4,52.0,68.0,61.0,51.0,100,93,66,30.07,29.88,22,2,25,0.38
2013-12-30,60.0,51.8,45.0,52.0,47.7,45.0,100,87,65,30.19,29.99,10,1,10,0.00
2013-12-31,56.0,50.4,43.0,49.0,45.4,37.0,100,84,53,30.37,30.16,15,1,15,0.00
2014-1-1,56.0,46.7,41.0,50.0,45.1,41.0,100,95,79,30.37,30.14,8,0,8,0.25
2014-1-2,59.0,51.8,47.0,59.0,51.4,43.0,100,99,80,30.14,29.69,21,2,25,0.97